sensor_id;sensor_type;location;lat;lon;timestamp;P1;durP1;ratioP1;P2;durP2;ratioP2
48552;SDS011;34335;51.566;6.994;2023-02-20T00:00:34;3.97;;;1.65;;
48552;SDS011;34335;51.566;6.994;2023-02-20T00:03:01;3.72;;;1.48;;
48552;SDS011;34335;51.566;6.994;2023-02-20T00:05:27;3.88;;;1.23;;
48552;SDS011;34335;51.566;6.994;2023-02-20T00:07:52;3.33;;;1.45;;
48552;SDS011;34335;51.566;6.994;2023-02-20T00:10:18;5.65;;;1.73;;
48552;SDS011;34335;51.566;6.994;2023-02-20T00:12:43;3.40;;;1.88;;
48552;SDS011;34335;51.566;6.994;2023-02-20T00:15:09;4.78;;;2.25;;
48552;SDS011;34335;51.566;6.994;2023-02-20T00:17:37;6.93;;;2.10;;
48552;SDS011;34335;51.566;6.994;2023-02-20T00:20:03;3.97;;;2.00;;
48552;SDS011;34335;51.566;6.994;2023-02-20T00:22:29;5.35;;;2.30;;
48552;SDS011;34335;51.566;6.994;2023-02-20T00:24:54;2.10;;;1.43;;
48552;SDS011;34335;51.566;6.994;2023-02-20T00:27:19;3.88;;;2.00;;
48552;SDS011;34335;51.566;6.994;2023-02-20T00:29:45;6.95;;;1.75;;
48552;SDS011;34335;51.566;6.994;2023-02-20T00:32:11;3.92;;;1.77;;
48552;SDS011;34335;51.566;6.994;2023-02-20T00:34:37;3.90;;;2.03;;
48552;SDS011;34335;51.566;6.994;2023-02-20T00:37:02;7.22;;;2.97;;
48552;SDS011;34335;51.566;6.994;2023-02-20T00:39:27;7.03;;;2.72;;
48552;SDS011;34335;51.566;6.994;2023-02-20T00:41:53;4.35;;;1.98;;
48552;SDS011;34335;51.566;6.994;2023-02-20T00:44:20;6.15;;;2.00;;
48552;SDS011;34335;51.566;6.994;2023-02-20T00:46:45;5.53;;;2.17;;
48552;SDS011;34335;51.566;6.994;2023-02-20T00:49:10;2.20;;;1.40;;
48552;SDS011;34335;51.566;6.994;2023-02-20T00:51:36;4.88;;;1.98;;
48552;SDS011;34335;51.566;6.994;2023-02-20T00:54:01;9.43;;;2.33;;
48552;SDS011;34335;51.566;6.994;2023-02-20T00:56:26;6.82;;;1.95;;
48552;SDS011;34335;51.566;6.994;2023-02-20T00:58:52;5.70;;;2.03;;
48552;SDS011;34335;51.566;6.994;2023-02-20T01:01:17;5.85;;;2.10;;
48552;SDS011;34335;51.566;6.994;2023-02-20T01:03:42;5.40;;;2.15;;
48552;SDS011;34335;51.566;6.994;2023-02-20T01:06:08;3.60;;;1.88;;
48552;SDS011;34335;51.566;6.994;2023-02-20T01:08:34;5.13;;;2.88;;
48552;SDS011;34335;51.566;6.994;2023-02-20T01:10:59;6.83;;;2.40;;
48552;SDS011;34335;51.566;6.994;2023-02-20T01:13:24;4.68;;;2.78;;
48552;SDS011;34335;51.566;6.994;2023-02-20T01:15:50;1.58;;;1.30;;
48552;SDS011;34335;51.566;6.994;2023-02-20T01:18:16;6.18;;;2.42;;
48552;SDS011;34335;51.566;6.994;2023-02-20T01:20:41;6.38;;;3.28;;
48552;SDS011;34335;51.566;6.994;2023-02-20T01:23:06;2.90;;;1.33;;
48552;SDS011;34335;51.566;6.994;2023-02-20T01:25:32;2.30;;;1.42;;
48552;SDS011;34335;51.566;6.994;2023-02-20T01:27:57;10.57;;;3.25;;
48552;SDS011;34335;51.566;6.994;2023-02-20T01:30:22;10.75;;;3.13;;
48552;SDS011;34335;51.566;6.994;2023-02-20T01:32:47;5.20;;;2.87;;
48552;SDS011;34335;51.566;6.994;2023-02-20T01:35:13;6.70;;;2.38;;
48552;SDS011;34335;51.566;6.994;2023-02-20T01:37:39;6.78;;;3.15;;
48552;SDS011;34335;51.566;6.994;2023-02-20T01:40:04;7.13;;;3.13;;
48552;SDS011;34335;51.566;6.994;2023-02-20T01:42:31;5.88;;;2.63;;
48552;SDS011;34335;51.566;6.994;2023-02-20T01:47:43;4.68;;;2.00;;
48552;SDS011;34335;51.566;6.994;2023-02-20T01:50:08;4.45;;;2.58;;
48552;SDS011;34335;51.566;6.994;2023-02-20T01:52:35;5.00;;;2.75;;
48552;SDS011;34335;51.566;6.994;2023-02-20T01:57:34;7.22;;;2.47;;
48552;SDS011;34335;51.566;6.994;2023-02-20T02:00:07;8.45;;;3.40;;
48552;SDS011;34335;51.566;6.994;2023-02-20T02:02:35;10.25;;;4.07;;
48552;SDS011;34335;51.566;6.994;2023-02-20T02:05:04;5.82;;;3.03;;
48552;SDS011;34335;51.566;6.994;2023-02-20T02:07:31;4.15;;;1.98;;
48552;SDS011;34335;51.566;6.994;2023-02-20T02:09:57;7.95;;;2.47;;
48552;SDS011;34335;51.566;6.994;2023-02-20T02:12:26;8.05;;;2.72;;
48552;SDS011;34335;51.566;6.994;2023-02-20T02:14:51;5.80;;;2.67;;
48552;SDS011;34335;51.566;6.994;2023-02-20T02:17:27;5.78;;;2.55;;
48552;SDS011;34335;51.566;6.994;2023-02-20T02:23:13;6.38;;;2.83;;
48552;SDS011;34335;51.566;6.994;2023-02-20T02:39:35;11.60;;;3.95;;
48552;SDS011;34335;51.566;6.994;2023-02-20T02:42:19;7.63;;;3.15;;
48552;SDS011;34335;51.566;6.994;2023-02-20T02:47:50;5.53;;;2.58;;
48552;SDS011;34335;51.566;6.994;2023-02-20T02:50:22;4.90;;;2.17;;
48552;SDS011;34335;51.566;6.994;2023-02-20T02:52:53;9.18;;;4.03;;
48552;SDS011;34335;51.566;6.994;2023-02-20T02:55:27;8.38;;;3.78;;
48552;SDS011;34335;51.566;6.994;2023-02-20T02:57:53;6.13;;;2.58;;
48552;SDS011;34335;51.566;6.994;2023-02-20T03:03:06;8.77;;;3.50;;
48552;SDS011;34335;51.566;6.994;2023-02-20T03:08:17;8.57;;;4.05;;
48552;SDS011;34335;51.566;6.994;2023-02-20T03:10:56;13.65;;;3.33;;
48552;SDS011;34335;51.566;6.994;2023-02-20T03:13:25;11.50;;;3.05;;
48552;SDS011;34335;51.566;6.994;2023-02-20T03:16:15;6.50;;;3.38;;
48552;SDS011;34335;51.566;6.994;2023-02-20T03:18:44;8.60;;;3.08;;
48552;SDS011;34335;51.566;6.994;2023-02-20T03:21:16;6.28;;;3.25;;
48552;SDS011;34335;51.566;6.994;2023-02-20T03:23:46;5.80;;;2.50;;
48552;SDS011;34335;51.566;6.994;2023-02-20T03:26:17;7.60;;;3.35;;
48552;SDS011;34335;51.566;6.994;2023-02-20T03:29:09;9.07;;;4.22;;
48552;SDS011;34335;51.566;6.994;2023-02-20T03:34:21;8.32;;;4.03;;
48552;SDS011;34335;51.566;6.994;2023-02-20T03:37:13;6.10;;;3.47;;
48552;SDS011;34335;51.566;6.994;2023-02-20T03:40:03;8.70;;;3.75;;
48552;SDS011;34335;51.566;6.994;2023-02-20T03:42:51;6.50;;;3.40;;
48552;SDS011;34335;51.566;6.994;2023-02-20T03:45:40;6.88;;;3.42;;
48552;SDS011;34335;51.566;6.994;2023-02-20T03:48:14;6.30;;;2.10;;
48552;SDS011;34335;51.566;6.994;2023-02-20T03:50:44;6.57;;;3.13;;
48552;SDS011;34335;51.566;6.994;2023-02-20T03:53:28;10.18;;;4.63;;
48552;SDS011;34335;51.566;6.994;2023-02-20T03:55:54;12.82;;;4.85;;
48552;SDS011;34335;51.566;6.994;2023-02-20T03:58:23;7.10;;;3.63;;
48552;SDS011;34335;51.566;6.994;2023-02-20T04:00:51;6.78;;;3.42;;
48552;SDS011;34335;51.566;6.994;2023-02-20T04:03:21;4.13;;;1.77;;
48552;SDS011;34335;51.566;6.994;2023-02-20T04:05:50;10.60;;;3.70;;
48552;SDS011;34335;51.566;6.994;2023-02-20T04:08:20;10.07;;;4.07;;
48552;SDS011;34335;51.566;6.994;2023-02-20T04:10:56;10.45;;;2.95;;
48552;SDS011;34335;51.566;6.994;2023-02-20T04:13:25;6.53;;;3.10;;
48552;SDS011;34335;51.566;6.994;2023-02-20T04:15:50;5.75;;;3.22;;
48552;SDS011;34335;51.566;6.994;2023-02-20T04:18:17;8.90;;;4.45;;
48552;SDS011;34335;51.566;6.994;2023-02-20T04:20:45;8.65;;;3.45;;
48552;SDS011;34335;51.566;6.994;2023-02-20T04:23:15;9.88;;;4.47;;
48552;SDS011;34335;51.566;6.994;2023-02-20T04:25:43;8.52;;;3.47;;
48552;SDS011;34335;51.566;6.994;2023-02-20T04:28:11;6.55;;;2.63;;
48552;SDS011;34335;51.566;6.994;2023-02-20T04:30:38;8.35;;;3.35;;
48552;SDS011;34335;51.566;6.994;2023-02-20T04:33:04;7.70;;;4.20;;
48552;SDS011;34335;51.566;6.994;2023-02-20T04:35:29;6.22;;;2.80;;
48552;SDS011;34335;51.566;6.994;2023-02-20T04:37:54;7.75;;;3.90;;
48552;SDS011;34335;51.566;6.994;2023-02-20T04:40:21;5.55;;;2.20;;
48552;SDS011;34335;51.566;6.994;2023-02-20T04:42:48;4.40;;;1.92;;
48552;SDS011;34335;51.566;6.994;2023-02-20T04:45:13;9.52;;;3.85;;
48552;SDS011;34335;51.566;6.994;2023-02-20T04:47:40;5.18;;;2.38;;
48552;SDS011;34335;51.566;6.994;2023-02-20T04:50:05;9.85;;;3.55;;
48552;SDS011;34335;51.566;6.994;2023-02-20T04:52:30;7.22;;;3.10;;
48552;SDS011;34335;51.566;6.994;2023-02-20T04:54:56;5.75;;;2.55;;
48552;SDS011;34335;51.566;6.994;2023-02-20T04:57:21;2.70;;;1.75;;
48552;SDS011;34335;51.566;6.994;2023-02-20T04:59:46;11.23;;;3.22;;
48552;SDS011;34335;51.566;6.994;2023-02-20T05:02:12;10.52;;;3.50;;
48552;SDS011;34335;51.566;6.994;2023-02-20T05:04:37;6.80;;;2.30;;
48552;SDS011;34335;51.566;6.994;2023-02-20T05:07:02;6.72;;;2.47;;
48552;SDS011;34335;51.566;6.994;2023-02-20T05:09:28;8.23;;;2.85;;
48552;SDS011;34335;51.566;6.994;2023-02-20T05:11:54;4.47;;;2.42;;
48552;SDS011;34335;51.566;6.994;2023-02-20T05:14:19;7.13;;;2.57;;
48552;SDS011;34335;51.566;6.994;2023-02-20T05:16:45;6.38;;;2.70;;
48552;SDS011;34335;51.566;6.994;2023-02-20T05:19:11;5.10;;;3.05;;
48552;SDS011;34335;51.566;6.994;2023-02-20T05:21:40;5.55;;;3.10;;
48552;SDS011;34335;51.566;6.994;2023-02-20T05:24:24;4.03;;;1.92;;
48552;SDS011;34335;51.566;6.994;2023-02-20T05:26:51;8.50;;;2.28;;
48552;SDS011;34335;51.566;6.994;2023-02-20T05:29:16;5.55;;;2.28;;
48552;SDS011;34335;51.566;6.994;2023-02-20T05:31:42;5.93;;;2.30;;
48552;SDS011;34335;51.566;6.994;2023-02-20T05:34:07;5.07;;;3.03;;
48552;SDS011;34335;51.566;6.994;2023-02-20T05:36:33;5.30;;;2.92;;
48552;SDS011;34335;51.566;6.994;2023-02-20T05:38:58;5.93;;;2.42;;
48552;SDS011;34335;51.566;6.994;2023-02-20T05:41:24;17.05;;;2.83;;
48552;SDS011;34335;51.566;6.994;2023-02-20T05:43:51;8.27;;;3.72;;
48552;SDS011;34335;51.566;6.994;2023-02-20T05:46:18;8.48;;;3.65;;
48552;SDS011;34335;51.566;6.994;2023-02-20T05:48:47;4.75;;;2.75;;
48552;SDS011;34335;51.566;6.994;2023-02-20T05:51:21;6.65;;;3.08;;
48552;SDS011;34335;51.566;6.994;2023-02-20T05:53:47;2.90;;;2.15;;
48552;SDS011;34335;51.566;6.994;2023-02-20T05:56:13;7.78;;;3.90;;
48552;SDS011;34335;51.566;6.994;2023-02-20T05:58:40;5.43;;;2.35;;
48552;SDS011;34335;51.566;6.994;2023-02-20T06:01:07;7.10;;;3.88;;
48552;SDS011;34335;51.566;6.994;2023-02-20T06:03:32;4.10;;;3.28;;
48552;SDS011;34335;51.566;6.994;2023-02-20T06:05:57;6.03;;;3.53;;
48552;SDS011;34335;51.566;6.994;2023-02-20T06:08:23;12.25;;;3.47;;
48552;SDS011;34335;51.566;6.994;2023-02-20T06:10:48;4.13;;;2.07;;
48552;SDS011;34335;51.566;6.994;2023-02-20T06:13:13;10.10;;;4.25;;
48552;SDS011;34335;51.566;6.994;2023-02-20T06:15:38;10.75;;;5.35;;
48552;SDS011;34335;51.566;6.994;2023-02-20T06:18:04;5.20;;;2.72;;
48552;SDS011;34335;51.566;6.994;2023-02-20T06:20:29;5.72;;;2.92;;
48552;SDS011;34335;51.566;6.994;2023-02-20T06:22:54;4.15;;;2.88;;
48552;SDS011;34335;51.566;6.994;2023-02-20T06:25:21;7.93;;;4.40;;
48552;SDS011;34335;51.566;6.994;2023-02-20T06:27:46;8.20;;;4.18;;
48552;SDS011;34335;51.566;6.994;2023-02-20T06:30:12;6.68;;;3.28;;
48552;SDS011;34335;51.566;6.994;2023-02-20T06:32:37;8.68;;;3.97;;
48552;SDS011;34335;51.566;6.994;2023-02-20T06:35:02;10.63;;;5.78;;
48552;SDS011;34335;51.566;6.994;2023-02-20T06:37:28;7.20;;;4.85;;
48552;SDS011;34335;51.566;6.994;2023-02-20T06:39:53;10.17;;;6.13;;
48552;SDS011;34335;51.566;6.994;2023-02-20T06:42:19;10.70;;;4.05;;
48552;SDS011;34335;51.566;6.994;2023-02-20T06:44:45;9.05;;;4.70;;
48552;SDS011;34335;51.566;6.994;2023-02-20T06:47:10;7.07;;;3.83;;
48552;SDS011;34335;51.566;6.994;2023-02-20T06:49:36;7.22;;;5.25;;
48552;SDS011;34335;51.566;6.994;2023-02-20T06:52:02;9.88;;;3.55;;
48552;SDS011;34335;51.566;6.994;2023-02-20T06:54:29;12.45;;;5.15;;
48552;SDS011;34335;51.566;6.994;2023-02-20T06:56:55;6.53;;;4.82;;
48552;SDS011;34335;51.566;6.994;2023-02-20T06:59:21;6.15;;;3.72;;
48552;SDS011;34335;51.566;6.994;2023-02-20T07:01:47;13.35;;;6.88;;
48552;SDS011;34335;51.566;6.994;2023-02-20T07:04:16;13.38;;;6.63;;
48552;SDS011;34335;51.566;6.994;2023-02-20T07:06:47;15.80;;;7.15;;
48552;SDS011;34335;51.566;6.994;2023-02-20T07:09:13;13.82;;;7.07;;
48552;SDS011;34335;51.566;6.994;2023-02-20T07:11:39;9.88;;;5.72;;
48552;SDS011;34335;51.566;6.994;2023-02-20T07:14:04;9.02;;;4.95;;
48552;SDS011;34335;51.566;6.994;2023-02-20T07:16:29;8.88;;;4.97;;
48552;SDS011;34335;51.566;6.994;2023-02-20T07:18:55;14.20;;;5.38;;
48552;SDS011;34335;51.566;6.994;2023-02-20T07:21:21;12.75;;;5.97;;
48552;SDS011;34335;51.566;6.994;2023-02-20T07:23:46;13.27;;;7.43;;
48552;SDS011;34335;51.566;6.994;2023-02-20T07:26:19;13.45;;;6.28;;
48552;SDS011;34335;51.566;6.994;2023-02-20T07:28:47;18.52;;;6.65;;
48552;SDS011;34335;51.566;6.994;2023-02-20T07:31:12;9.77;;;5.57;;
48552;SDS011;34335;51.566;6.994;2023-02-20T07:33:37;12.80;;;5.50;;
48552;SDS011;34335;51.566;6.994;2023-02-20T07:36:03;11.75;;;5.18;;
48552;SDS011;34335;51.566;6.994;2023-02-20T07:38:29;11.63;;;5.25;;
48552;SDS011;34335;51.566;6.994;2023-02-20T07:40:54;11.20;;;5.97;;
48552;SDS011;34335;51.566;6.994;2023-02-20T07:43:19;10.20;;;4.72;;
48552;SDS011;34335;51.566;6.994;2023-02-20T07:45:45;8.15;;;3.95;;
48552;SDS011;34335;51.566;6.994;2023-02-20T07:48:10;9.38;;;3.83;;
48552;SDS011;34335;51.566;6.994;2023-02-20T07:50:35;14.25;;;5.40;;
48552;SDS011;34335;51.566;6.994;2023-02-20T07:53:01;14.40;;;4.07;;
48552;SDS011;34335;51.566;6.994;2023-02-20T07:55:26;7.40;;;4.30;;
48552;SDS011;34335;51.566;6.994;2023-02-20T07:57:51;9.40;;;3.78;;
48552;SDS011;34335;51.566;6.994;2023-02-20T08:00:18;11.88;;;4.13;;
48552;SDS011;34335;51.566;6.994;2023-02-20T08:02:44;6.05;;;2.55;;
48552;SDS011;34335;51.566;6.994;2023-02-20T08:05:10;8.18;;;4.13;;
48552;SDS011;34335;51.566;6.994;2023-02-20T08:07:36;15.50;;;5.68;;
48552;SDS011;34335;51.566;6.994;2023-02-20T08:10:02;8.07;;;4.38;;
48552;SDS011;34335;51.566;6.994;2023-02-20T08:12:28;13.60;;;5.57;;
48552;SDS011;34335;51.566;6.994;2023-02-20T08:14:53;10.30;;;3.28;;
48552;SDS011;34335;51.566;6.994;2023-02-20T08:17:18;13.98;;;4.38;;
48552;SDS011;34335;51.566;6.994;2023-02-20T08:19:44;7.75;;;3.67;;
48552;SDS011;34335;51.566;6.994;2023-02-20T08:22:09;10.73;;;4.93;;
48552;SDS011;34335;51.566;6.994;2023-02-20T08:24:35;11.05;;;4.65;;
48552;SDS011;34335;51.566;6.994;2023-02-20T08:27:00;11.20;;;5.68;;
48552;SDS011;34335;51.566;6.994;2023-02-20T08:29:25;7.43;;;4.35;;
48552;SDS011;34335;51.566;6.994;2023-02-20T08:31:51;7.35;;;4.07;;
48552;SDS011;34335;51.566;6.994;2023-02-20T08:34:16;9.75;;;4.45;;
48552;SDS011;34335;51.566;6.994;2023-02-20T08:36:42;9.23;;;4.23;;
48552;SDS011;34335;51.566;6.994;2023-02-20T08:39:07;4.85;;;3.25;;
48552;SDS011;34335;51.566;6.994;2023-02-20T08:41:32;12.35;;;4.72;;
48552;SDS011;34335;51.566;6.994;2023-02-20T08:43:58;11.52;;;5.43;;
48552;SDS011;34335;51.566;6.994;2023-02-20T08:46:23;9.27;;;5.10;;
48552;SDS011;34335;51.566;6.994;2023-02-20T08:48:48;7.03;;;3.42;;
48552;SDS011;34335;51.566;6.994;2023-02-20T08:51:17;7.68;;;3.65;;
48552;SDS011;34335;51.566;6.994;2023-02-20T08:53:44;11.80;;;5.15;;
48552;SDS011;34335;51.566;6.994;2023-02-20T08:56:09;9.65;;;4.32;;
48552;SDS011;34335;51.566;6.994;2023-02-20T08:58:36;11.35;;;5.00;;
48552;SDS011;34335;51.566;6.994;2023-02-20T09:01:02;8.70;;;2.80;;
48552;SDS011;34335;51.566;6.994;2023-02-20T09:03:27;7.15;;;3.72;;
48552;SDS011;34335;51.566;6.994;2023-02-20T09:05:53;9.15;;;4.65;;
48552;SDS011;34335;51.566;6.994;2023-02-20T09:08:18;7.78;;;3.90;;
48552;SDS011;34335;51.566;6.994;2023-02-20T09:10:43;11.87;;;6.00;;
48552;SDS011;34335;51.566;6.994;2023-02-20T09:13:09;9.32;;;4.88;;
48552;SDS011;34335;51.566;6.994;2023-02-20T09:15:34;11.40;;;4.03;;
48552;SDS011;34335;51.566;6.994;2023-02-20T09:18:03;13.50;;;6.68;;
48552;SDS011;34335;51.566;6.994;2023-02-20T09:20:30;8.43;;;4.47;;
48552;SDS011;34335;51.566;6.994;2023-02-20T09:22:57;9.88;;;5.13;;
48552;SDS011;34335;51.566;6.994;2023-02-20T09:25:24;10.50;;;6.18;;
48552;SDS011;34335;51.566;6.994;2023-02-20T09:27:50;10.38;;;3.60;;
48552;SDS011;34335;51.566;6.994;2023-02-20T09:30:16;5.97;;;3.47;;
48552;SDS011;34335;51.566;6.994;2023-02-20T09:32:44;12.48;;;4.97;;
48552;SDS011;34335;51.566;6.994;2023-02-20T09:35:14;7.95;;;3.85;;
48552;SDS011;34335;51.566;6.994;2023-02-20T09:37:45;6.70;;;3.42;;
48552;SDS011;34335;51.566;6.994;2023-02-20T09:40:11;11.32;;;5.35;;
48552;SDS011;34335;51.566;6.994;2023-02-20T09:45:50;5.78;;;2.40;;
48552;SDS011;34335;51.566;6.994;2023-02-20T09:48:32;12.88;;;5.45;;
48552;SDS011;34335;51.566;6.994;2023-02-20T13:02:36;4.47;;;2.47;;
48552;SDS011;34335;51.566;6.994;2023-02-20T13:05:05;9.07;;;4.85;;
48552;SDS011;34335;51.566;6.994;2023-02-20T13:10:24;6.00;;;3.55;;
48552;SDS011;34335;51.566;6.994;2023-02-20T13:12:52;7.25;;;3.75;;
48552;SDS011;34335;51.566;6.994;2023-02-20T13:18:13;4.25;;;2.20;;
48552;SDS011;34335;51.566;6.994;2023-02-20T13:20:49;4.57;;;2.37;;
48552;SDS011;34335;51.566;6.994;2023-02-20T13:25:44;4.63;;;2.67;;
48552;SDS011;34335;51.566;6.994;2023-02-20T13:30:37;5.10;;;3.03;;
48552;SDS011;34335;51.566;6.994;2023-02-20T13:33:10;4.13;;;1.95;;
48552;SDS011;34335;51.566;6.994;2023-02-20T13:38:10;3.78;;;2.45;;
48552;SDS011;34335;51.566;6.994;2023-02-20T13:40:37;7.75;;;3.40;;
48552;SDS011;34335;51.566;6.994;2023-02-20T13:43:23;20.60;;;6.00;;
48552;SDS011;34335;51.566;6.994;2023-02-20T13:53:40;9.38;;;4.75;;
48552;SDS011;34335;51.566;6.994;2023-02-20T13:56:16;10.45;;;5.85;;
48552;SDS011;34335;51.566;6.994;2023-02-20T13:58:48;21.50;;;5.65;;
48552;SDS011;34335;51.566;6.994;2023-02-20T14:01:14;12.52;;;6.07;;
48552;SDS011;34335;51.566;6.994;2023-02-20T14:03:40;11.63;;;5.65;;
48552;SDS011;34335;51.566;6.994;2023-02-20T14:06:07;7.38;;;4.32;;
48552;SDS011;34335;51.566;6.994;2023-02-20T14:08:39;9.20;;;4.93;;
48552;SDS011;34335;51.566;6.994;2023-02-20T14:11:07;12.38;;;4.65;;
48552;SDS011;34335;51.566;6.994;2023-02-20T14:13:35;11.52;;;4.15;;
48552;SDS011;34335;51.566;6.994;2023-02-20T14:16:02;9.63;;;4.43;;
48552;SDS011;34335;51.566;6.994;2023-02-20T14:18:29;14.52;;;4.35;;
48552;SDS011;34335;51.566;6.994;2023-02-20T14:20:57;12.30;;;6.28;;
48552;SDS011;34335;51.566;6.994;2023-02-20T14:23:29;7.88;;;3.22;;
48552;SDS011;34335;51.566;6.994;2023-02-20T14:25:59;10.30;;;4.63;;
48552;SDS011;34335;51.566;6.994;2023-02-20T14:28:27;11.23;;;4.97;;
48552;SDS011;34335;51.566;6.994;2023-02-20T14:31:04;12.25;;;6.05;;
48552;SDS011;34335;51.566;6.994;2023-02-20T14:33:51;8.48;;;4.50;;
48552;SDS011;34335;51.566;6.994;2023-02-20T14:39:43;7.20;;;4.32;;
48552;SDS011;34335;51.566;6.994;2023-02-20T14:42:20;9.05;;;4.85;;
48552;SDS011;34335;51.566;6.994;2023-02-20T14:44:47;8.50;;;4.22;;
48552;SDS011;34335;51.566;6.994;2023-02-20T14:47:15;5.38;;;2.90;;
48552;SDS011;34335;51.566;6.994;2023-02-20T14:49:41;9.93;;;4.03;;
48552;SDS011;34335;51.566;6.994;2023-02-20T14:54:33;11.10;;;5.27;;
48552;SDS011;34335;51.566;6.994;2023-02-20T14:56:58;7.00;;;3.78;;
48552;SDS011;34335;51.566;6.994;2023-02-20T15:02:18;5.57;;;3.72;;
48552;SDS011;34335;51.566;6.994;2023-02-20T15:04:51;5.93;;;3.22;;
48552;SDS011;34335;51.566;6.994;2023-02-20T15:07:25;12.18;;;5.30;;
48552;SDS011;34335;51.566;6.994;2023-02-20T15:09:52;11.25;;;5.80;;
48552;SDS011;34335;51.566;6.994;2023-02-20T15:14:51;11.77;;;6.13;;
48552;SDS011;34335;51.566;6.994;2023-02-20T15:17:26;10.52;;;6.30;;
48552;SDS011;34335;51.566;6.994;2023-02-20T15:19:53;11.65;;;5.65;;
48552;SDS011;34335;51.566;6.994;2023-02-20T15:22:23;12.90;;;7.95;;
48552;SDS011;34335;51.566;6.994;2023-02-20T15:24:48;9.50;;;4.82;;
48552;SDS011;34335;51.566;6.994;2023-02-20T15:27:15;13.32;;;5.72;;
48552;SDS011;34335;51.566;6.994;2023-02-20T15:29:43;11.05;;;5.70;;
48552;SDS011;34335;51.566;6.994;2023-02-20T15:32:16;14.10;;;6.18;;
48552;SDS011;34335;51.566;6.994;2023-02-20T15:34:48;8.73;;;5.72;;
48552;SDS011;34335;51.566;6.994;2023-02-20T15:39:54;15.70;;;6.60;;
48552;SDS011;34335;51.566;6.994;2023-02-20T15:42:20;11.20;;;5.88;;
48552;SDS011;34335;51.566;6.994;2023-02-20T15:44:48;19.23;;;7.30;;
48552;SDS011;34335;51.566;6.994;2023-02-20T15:47:14;5.75;;;3.58;;
48552;SDS011;34335;51.566;6.994;2023-02-20T15:49:39;9.15;;;4.95;;
48552;SDS011;34335;51.566;6.994;2023-02-20T15:52:05;11.90;;;6.72;;
48552;SDS011;34335;51.566;6.994;2023-02-20T15:54:34;19.55;;;7.18;;
48552;SDS011;34335;51.566;6.994;2023-02-20T15:56:59;10.35;;;4.97;;
48552;SDS011;34335;51.566;6.994;2023-02-20T15:59:25;12.18;;;7.28;;
48552;SDS011;34335;51.566;6.994;2023-02-20T16:01:50;8.85;;;5.88;;
48552;SDS011;34335;51.566;6.994;2023-02-20T16:04:16;9.48;;;6.15;;
48552;SDS011;34335;51.566;6.994;2023-02-20T16:06:42;12.10;;;6.65;;
48552;SDS011;34335;51.566;6.994;2023-02-20T16:09:08;13.43;;;6.97;;
48552;SDS011;34335;51.566;6.994;2023-02-20T16:11:38;15.52;;;6.25;;
48552;SDS011;34335;51.566;6.994;2023-02-20T16:14:05;10.32;;;4.90;;
48552;SDS011;34335;51.566;6.994;2023-02-20T16:16:38;13.60;;;5.13;;
48552;SDS011;34335;51.566;6.994;2023-02-20T16:19:10;12.75;;;5.22;;
48552;SDS011;34335;51.566;6.994;2023-02-20T16:21:38;14.98;;;6.32;;
48552;SDS011;34335;51.566;6.994;2023-02-20T16:24:03;12.13;;;6.00;;
48552;SDS011;34335;51.566;6.994;2023-02-20T16:26:29;13.20;;;6.32;;
48552;SDS011;34335;51.566;6.994;2023-02-20T16:28:59;11.50;;;6.70;;
48552;SDS011;34335;51.566;6.994;2023-02-20T16:32:08;13.75;;;6.53;;
48552;SDS011;34335;51.566;6.994;2023-02-20T16:34:21;8.25;;;4.15;;
48552;SDS011;34335;51.566;6.994;2023-02-20T16:36:50;12.60;;;6.15;;
48552;SDS011;34335;51.566;6.994;2023-02-20T16:39:16;14.55;;;6.63;;
48552;SDS011;34335;51.566;6.994;2023-02-20T16:41:42;10.10;;;5.63;;
48552;SDS011;34335;51.566;6.994;2023-02-20T16:44:12;4.20;;;2.42;;
48552;SDS011;34335;51.566;6.994;2023-02-20T16:46:39;11.32;;;5.13;;
48552;SDS011;34335;51.566;6.994;2023-02-20T16:49:04;5.78;;;4.03;;
48552;SDS011;34335;51.566;6.994;2023-02-20T16:51:30;10.10;;;4.53;;
48552;SDS011;34335;51.566;6.994;2023-02-20T16:53:55;14.20;;;6.00;;
48552;SDS011;34335;51.566;6.994;2023-02-20T16:56:21;11.30;;;4.85;;
48552;SDS011;34335;51.566;6.994;2023-02-20T16:58:46;9.80;;;4.23;;
48552;SDS011;34335;51.566;6.994;2023-02-20T17:01:11;5.97;;;4.15;;
48552;SDS011;34335;51.566;6.994;2023-02-20T17:03:37;10.55;;;5.05;;
48552;SDS011;34335;51.566;6.994;2023-02-20T17:06:02;8.10;;;3.92;;
48552;SDS011;34335;51.566;6.994;2023-02-20T17:08:27;12.23;;;5.28;;
48552;SDS011;34335;51.566;6.994;2023-02-20T17:10:53;9.37;;;3.13;;
48552;SDS011;34335;51.566;6.994;2023-02-20T17:13:18;6.20;;;4.00;;
48552;SDS011;34335;51.566;6.994;2023-02-20T17:15:44;9.00;;;4.85;;
48552;SDS011;34335;51.566;6.994;2023-02-20T17:18:11;8.90;;;4.38;;
48552;SDS011;34335;51.566;6.994;2023-02-20T17:20:37;8.55;;;4.05;;
48552;SDS011;34335;51.566;6.994;2023-02-20T17:23:02;13.35;;;4.88;;
48552;SDS011;34335;51.566;6.994;2023-02-20T17:25:31;8.50;;;4.22;;
48552;SDS011;34335;51.566;6.994;2023-02-20T17:27:57;10.30;;;4.97;;
48552;SDS011;34335;51.566;6.994;2023-02-20T17:30:23;8.60;;;4.45;;
48552;SDS011;34335;51.566;6.994;2023-02-20T17:32:49;12.27;;;5.45;;
48552;SDS011;34335;51.566;6.994;2023-02-20T17:35:15;14.43;;;5.55;;
48552;SDS011;34335;51.566;6.994;2023-02-20T17:37:41;8.48;;;3.65;;
48552;SDS011;34335;51.566;6.994;2023-02-20T17:40:07;11.27;;;5.05;;
48552;SDS011;34335;51.566;6.994;2023-02-20T17:42:32;8.15;;;4.93;;
48552;SDS011;34335;51.566;6.994;2023-02-20T17:44:58;12.32;;;6.28;;
48552;SDS011;34335;51.566;6.994;2023-02-20T17:47:24;7.90;;;4.95;;
48552;SDS011;34335;51.566;6.994;2023-02-20T17:49:50;7.55;;;3.97;;
48552;SDS011;34335;51.566;6.994;2023-02-20T17:52:18;12.55;;;3.83;;
48552;SDS011;34335;51.566;6.994;2023-02-20T17:54:45;10.55;;;4.55;;
48552;SDS011;34335;51.566;6.994;2023-02-20T17:57:11;13.38;;;6.32;;
48552;SDS011;34335;51.566;6.994;2023-02-20T17:59:37;8.65;;;4.18;;
48552;SDS011;34335;51.566;6.994;2023-02-20T18:02:04;10.13;;;5.18;;
48552;SDS011;34335;51.566;6.994;2023-02-20T18:04:29;10.10;;;5.95;;
48552;SDS011;34335;51.566;6.994;2023-02-20T18:06:54;11.80;;;4.73;;
48552;SDS011;34335;51.566;6.994;2023-02-20T18:09:19;10.20;;;4.07;;
48552;SDS011;34335;51.566;6.994;2023-02-20T18:11:45;10.77;;;4.43;;
48552;SDS011;34335;51.566;6.994;2023-02-20T18:14:11;14.68;;;6.40;;
48552;SDS011;34335;51.566;6.994;2023-02-20T18:16:37;8.90;;;4.53;;
48552;SDS011;34335;51.566;6.994;2023-02-20T18:19:06;12.13;;;6.45;;
48552;SDS011;34335;51.566;6.994;2023-02-20T18:21:34;8.88;;;5.53;;
48552;SDS011;34335;51.566;6.994;2023-02-20T18:24:01;12.27;;;5.15;;
48552;SDS011;34335;51.566;6.994;2023-02-20T18:26:28;14.98;;;6.05;;
48552;SDS011;34335;51.566;6.994;2023-02-20T18:28:54;13.13;;;5.10;;
48552;SDS011;34335;51.566;6.994;2023-02-20T18:31:20;14.27;;;6.72;;
48552;SDS011;34335;51.566;6.994;2023-02-20T18:33:47;19.08;;;7.28;;
48552;SDS011;34335;51.566;6.994;2023-02-20T18:36:13;10.68;;;5.72;;
48552;SDS011;34335;51.566;6.994;2023-02-20T18:38:38;20.98;;;7.00;;
48552;SDS011;34335;51.566;6.994;2023-02-20T18:41:03;13.37;;;5.37;;
48552;SDS011;34335;51.566;6.994;2023-02-20T18:43:30;11.25;;;4.80;;
48552;SDS011;34335;51.566;6.994;2023-02-20T18:45:56;10.23;;;5.00;;
48552;SDS011;34335;51.566;6.994;2023-02-20T18:48:21;10.63;;;5.53;;
48552;SDS011;34335;51.566;6.994;2023-02-20T18:50:46;11.80;;;5.88;;
48552;SDS011;34335;51.566;6.994;2023-02-20T18:53:13;6.93;;;4.55;;
48552;SDS011;34335;51.566;6.994;2023-02-20T18:55:39;10.68;;;4.57;;
48552;SDS011;34335;51.566;6.994;2023-02-20T18:58:04;11.75;;;4.72;;
48552;SDS011;34335;51.566;6.994;2023-02-20T19:00:30;13.20;;;6.43;;
48552;SDS011;34335;51.566;6.994;2023-02-20T19:02:58;14.05;;;5.68;;
48552;SDS011;34335;51.566;6.994;2023-02-20T19:05:25;8.80;;;3.97;;
48552;SDS011;34335;51.566;6.994;2023-02-20T19:07:51;8.25;;;4.68;;